Time;durP1;ratioP1;P1;durP2;ratioP2;P2;SDS_P1;SDS_P2;PMS_P1;PMS_P2;Temp;Humidity;BMP_temperature;BMP_pressure;BME280_temperature;BME280_humidity;BME280_pressure;Samples;Min_cycle;Max_cycle;Signal;HPM_P1;HPM_P2
2023/01/14 00:01:33;;;;;;;9.52;8.93;;;;;;;;;;5022531;28;20443;-60
2023/01/14 00:04:00;;;;;;;10.02;9.43;;;;;;;;;;5024143;28;20037;-59
2023/01/14 00:06:31;;;;;;;9.20;8.60;;;;;;;;;;5024097;28;20106;-59
2023/01/14 00:08:58;;;;;;;10.43;9.52;;;;;;;;;;5020438;28;20033;-59
2023/01/14 00:14:08;;;;;;;12.18;10.98;;;;;;;;;;5025405;28;20122;-59
2023/01/14 00:16:34;;;;;;;9.98;9.27;;;;;;;;;;5025518;28;20694;-59
2023/01/14 00:18:59;;;;;;;9.40;8.80;;;;;;;;;;5023657;28;20037;-59
2023/01/14 00:21:25;;;;;;;10.02;9.43;;;;;;;;;;5024853;28;20095;-59
2023/01/14 00:23:53;;;;;;;10.82;10.13;;;;;;;;;;5024195;28;20415;-59
2023/01/14 00:26:19;;;;;;;11.00;9.95;;;;;;;;;;5025962;28;20037;-59
2023/01/14 00:28:46;;;;;;;10.57;9.77;;;;;;;;;;5026598;28;20359;-59
2023/01/14 00:31:16;;;;;;;9.43;8.77;;;;;;;;;;5004806;28;20049;-59
2023/01/14 00:33:42;;;;;;;9.77;9.07;;;;;;;;;;5024393;28;20044;-59
2023/01/14 00:36:10;;;;;;;10.27;9.57;;;;;;;;;;5022176;28;20032;-59
2023/01/14 00:38:36;;;;;;;10.82;10.02;;;;;;;;;;5026263;28;20103;-59
2023/01/14 00:41:01;;;;;;;9.70;8.90;;;;;;;;;;5024008;28;20602;-59
2023/01/14 00:43:28;;;;;;;8.70;8.10;;;;;;;;;;5025864;28;20033;-59
2023/01/14 00:45:53;;;;;;;9.73;9.02;;;;;;;;;;5022808;28;20033;-59
2023/01/14 00:48:18;;;;;;;10.25;9.50;;;;;;;;;;5026471;28;20036;-59
2023/01/14 00:50:44;;;;;;;9.60;8.90;;;;;;;;;;5024015;28;20430;-59
2023/01/14 00:53:09;;;;;;;9.38;8.77;;;;;;;;;;5024354;28;20056;-59
2023/01/14 00:55:34;;;;;;;10.02;9.43;;;;;;;;;;5026444;28;20112;-59
2023/01/14 00:58:00;;;;;;;10.70;10.00;;;;;;;;;;5025966;28;20033;-59
2023/01/14 01:00:25;;;;;;;9.15;8.55;;;;;;;;;;5026011;28;20381;-60
2023/01/14 01:02:51;;;;;;;9.55;8.93;;;;;;;;;;5026072;28;20116;-59
2023/01/14 01:05:16;;;;;;;10.55;9.70;;;;;;;;;;5024312;28;20034;-59
2023/01/14 01:07:42;;;;;;;12.15;10.10;;;;;;;;;;5023738;28;20087;-61
2023/01/14 01:10:08;;;;;;;9.90;8.98;;;;;;;;;;5024666;28;20025;-60
2023/01/14 01:12:34;;;;;;;9.63;9.02;;;;;;;;;;5026375;28;20167;-60
2023/01/14 01:14:59;;;;;;;11.00;10.20;;;;;;;;;;5022982;28;20116;-61
2023/01/14 01:17:24;;;;;;;10.68;9.98;;;;;;;;;;5026556;28;20033;-60
2023/01/14 01:19:52;;;;;;;10.18;9.27;;;;;;;;;;5008042;28;20033;-59
2023/01/14 01:22:18;;;;;;;10.20;9.45;;;;;;;;;;5025712;28;20057;-60
2023/01/14 01:24:43;;;;;;;12.05;10.90;;;;;;;;;;5025156;28;20065;-59
2023/01/14 01:27:08;;;;;;;10.50;9.80;;;;;;;;;;5025865;28;20041;-60
2023/01/14 01:29:34;;;;;;;10.10;9.32;;;;;;;;;;5024435;28;20148;-61
2023/01/14 01:31:59;;;;;;;9.10;8.50;;;;;;;;;;5024760;28;20038;-60
2023/01/14 01:34:25;;;;;;;11.35;10.55;;;;;;;;;;5025837;28;20052;-59
2023/01/14 01:36:50;;;;;;;9.90;9.18;;;;;;;;;;5025679;28;20122;-59
2023/01/14 01:39:16;;;;;;;9.20;8.60;;;;;;;;;;5024427;28;20041;-59
2023/01/14 01:41:41;;;;;;;9.80;9.20;;;;;;;;;;5024993;28;20061;-59
2023/01/14 01:44:27;;;;;;;10.45;9.75;;;;;;;;;;5023861;28;20112;-60
2023/01/14 01:46:54;;;;;;;11.57;10.63;;;;;;;;;;5040436;28;20033;-60
2023/01/14 01:49:26;;;;;;;11.02;10.27;;;;;;;;;;5025440;28;20034;-59
2023/01/14 01:52:01;;;;;;;9.68;9.07;;;;;;;;;;5023791;28;20060;-59
2023/01/14 01:54:31;;;;;;;9.45;8.85;;;;;;;;;;5025459;28;20033;-59
2023/01/14 01:56:58;;;;;;;9.15;8.55;;;;;;;;;;5024747;28;20363;-59
2023/01/14 01:59:27;;;;;;;9.63;8.90;;;;;;;;;;5025099;28;20040;-59
2023/01/14 02:01:55;;;;;;;9.95;9.35;;;;;;;;;;5023988;28;20053;-59
2023/01/14 02:04:20;;;;;;;9.27;8.68;;;;;;;;;;5024501;28;20037;-59
2023/01/14 02:06:46;;;;;;;9.55;8.95;;;;;;;;;;5025495;28;20045;-59
2023/01/14 02:09:13;;;;;;;11.45;10.50;;;;;;;;;;5023709;28;20029;-59
2023/01/14 02:12:10;;;;;;;10.48;9.77;;;;;;;;;;5024585;28;20045;-59
2023/01/14 02:14:46;;;;;;;10.40;9.60;;;;;;;;;;5023565;28;20037;-59
2023/01/14 02:17:33;;;;;;;9.80;9.20;;;;;;;;;;5022948;28;20050;-59
2023/01/14 02:20:10;;;;;;;9.00;8.40;;;;;;;;;;5023528;28;20099;-60
2023/01/14 02:22:54;;;;;;;9.75;9.15;;;;;;;;;;5023880;28;20045;-59
2023/01/14 02:26:06;;;;;;;9.07;8.48;;;;;;;;;;5024032;28;20235;-60
2023/01/14 02:28:59;;;;;;;9.52;8.93;;;;;;;;;;5024233;28;20034;-60
2023/01/14 02:31:29;;;;;;;10.77;10.02;;;;;;;;;;5007937;28;20681;-60
2023/01/14 02:33:59;;;;;;;9.65;9.02;;;;;;;;;;5024143;28;20103;-60
2023/01/14 02:36:35;;;;;;;10.38;9.57;;;;;;;;;;5024267;28;20037;-58
2023/01/14 02:39:20;;;;;;;10.07;9.38;;;;;;;;;;5020149;28;20133;-60
2023/01/14 02:44:39;;;;;;;9.00;8.40;;;;;;;;;;5028996;28;20812;-60
2023/01/14 02:47:32;;;;;;;10.50;9.80;;;;;;;;;;5028606;28;20130;-60
2023/01/14 02:49:59;;;;;;;10.82;10.13;;;;;;;;;;5027755;28;20041;-61
2023/01/14 02:52:25;;;;;;;8.95;8.35;;;;;;;;;;5028040;28;20498;-59
2023/01/14 02:55:02;;;;;;;9.65;9.05;;;;;;;;;;5027764;28;20041;-59
2023/01/14 02:57:49;;;;;;;9.85;9.25;;;;;;;;;;5028681;28;20037;-59
2023/01/14 03:00:28;;;;;;;9.93;9.23;;;;;;;;;;5026922;28;20359;-59
2023/01/14 03:03:20;;;;;;;8.95;8.30;;;;;;;;;;5028093;28;20048;-59
2023/01/14 03:06:10;;;;;;;10.20;9.60;;;;;;;;;;5028840;28;20559;-59
2023/01/14 03:08:44;;;;;;;11.40;10.70;;;;;;;;;;5028264;28;20371;-59
2023/01/14 03:11:10;;;;;;;10.80;10.10;;;;;;;;;;5026862;28;20042;-59
2023/01/14 03:13:53;;;;;;;9.60;9.00;;;;;;;;;;5027591;28;20071;-59
2023/01/14 03:16:27;;;;;;;9.43;8.82;;;;;;;;;;5028849;28;20083;-59
2023/01/14 03:19:11;;;;;;;12.07;11.27;;;;;;;;;;5028070;28;20079;-59
2023/01/14 03:21:40;;;;;;;9.82;9.23;;;;;;;;;;5026231;28;20033;-59
2023/01/14 03:24:11;;;;;;;9.50;8.90;;;;;;;;;;5018401;28;20120;-59
2023/01/14 03:26:39;;;;;;;11.55;10.65;;;;;;;;;;5027312;28;20132;-60
2023/01/14 03:29:10;;;;;;;10.57;9.73;;;;;;;;;;5026253;28;20414;-59
2023/01/14 03:31:41;;;;;;;9.95;9.35;;;;;;;;;;5016297;28;20049;-60
2023/01/14 03:34:15;;;;;;;10.65;9.95;;;;;;;;;;5027145;28;20037;-59
2023/01/14 03:36:43;;;;;;;9.57;8.98;;;;;;;;;;5026581;28;20140;-60
2023/01/14 03:39:13;;;;;;;11.85;11.05;;;;;;;;;;5025978;28;20037;-59
2023/01/14 03:44:32;;;;;;;10.13;9.48;;;;;;;;;;5026672;28;20045;-59
2023/01/14 03:46:58;;;;;;;9.57;8.98;;;;;;;;;;5027046;28;20091;-59
2023/01/14 03:49:23;;;;;;;11.52;10.73;;;;;;;;;;5027106;28;20426;-59
2023/01/14 03:52:01;;;;;;;10.00;9.02;;;;;;;;;;5026523;28;20371;-59
2023/01/14 03:54:36;;;;;;;9.73;9.13;;;;;;;;;;5026778;28;20366;-59
2023/01/14 03:57:18;;;;;;;11.38;10.32;;;;;;;;;;5027238;28;20033;-59
2023/01/14 03:59:50;;;;;;;9.80;9.15;;;;;;;;;;5027130;28;20057;-59
2023/01/14 04:02:17;;;;;;;11.23;10.52;;;;;;;;;;5026013;28;20058;-59
2023/01/14 04:04:45;;;;;;;10.95;10.10;;;;;;;;;;5027885;28;20045;-59
2023/01/14 04:07:10;;;;;;;10.40;9.45;;;;;;;;;;5027200;28;20750;-59
2023/01/14 04:09:36;;;;;;;16.05;9.10;;;;;;;;;;5027327;28;20033;-58
2023/01/14 04:12:01;;;;;;;9.70;9.10;;;;;;;;;;5026497;28;20037;-58
2023/01/14 04:17:10;;;;;;;9.10;8.50;;;;;;;;;;5026407;28;20048;-58
2023/01/14 04:19:36;;;;;;;10.90;10.10;;;;;;;;;;5027255;28;20037;-59
2023/01/14 04:22:01;;;;;;;10.43;9.68;;;;;;;;;;5025391;28;20041;-58
2023/01/14 04:24:26;;;;;;;11.55;10.70;;;;;;;;;;5026761;28;20119;-58
2023/01/14 04:26:52;;;;;;;9.93;9.32;;;;;;;;;;5027044;28;20042;-62
2023/01/14 04:29:17;;;;;;;11.27;10.57;;;;;;;;;;5024500;28;20578;-62
2023/01/14 04:31:42;;;;;;;9.15;8.55;;;;;;;;;;5026020;28;20037;-62
2023/01/14 04:34:10;;;;;;;12.95;9.85;;;;;;;;;;5025905;28;20056;-62
2023/01/14 04:36:35;;;;;;;11.52;10.60;;;;;;;;;;5026052;28;20045;-59
2023/01/14 04:39:00;;;;;;;9.80;9.20;;;;;;;;;;5023785;28;20040;-59
2023/01/14 04:44:10;;;;;;;9.88;9.27;;;;;;;;;;5023153;28;20033;-63
2023/01/14 04:46:35;;;;;;;11.40;10.55;;;;;;;;;;5025932;28;20056;-63
2023/01/14 04:49:00;;;;;;;10.85;10.05;;;;;;;;;;5025058;28;20030;-63
2023/01/14 04:51:26;;;;;;;10.75;9.85;;;;;;;;;;5023875;28;20037;-63
2023/01/14 04:53:51;;;;;;;9.25;8.65;;;;;;;;;;5026105;28;20623;-63
2023/01/14 04:56:16;;;;;;;10.85;9.95;;;;;;;;;;5023955;28;20034;-59
2023/01/14 04:58:42;;;;;;;10.15;9.30;;;;;;;;;;5025683;28;20037;-63
2023/01/14 05:01:07;;;;;;;10.38;9.55;;;;;;;;;;5024680;28;20041;-63
2023/01/14 05:03:32;;;;;;;10.20;9.30;;;;;;;;;;5025845;28;20025;-63
2023/01/14 05:05:58;;;;;;;19.23;10.57;;;;;;;;;;5023888;28;20076;-62
2023/01/14 05:08:23;;;;;;;10.18;9.45;;;;;;;;;;5026569;28;20041;-58
2023/01/14 05:10:49;;;;;;;10.18;9.48;;;;;;;;;;5025913;28;20479;-59
2023/01/14 05:13:15;;;;;;;9.57;8.98;;;;;;;;;;5023965;28;20037;-59
2023/01/14 05:15:42;;;;;;;9.65;9.05;;;;;;;;;;5026035;28;20565;-62
2023/01/14 05:18:09;;;;;;;10.07;9.48;;;;;;;;;;5024170;28;20057;-63
2023/01/14 05:20:35;;;;;;;10.43;9.73;;;;;;;;;;5023364;28;20131;-59
2023/01/14 05:23:02;;;;;;;10.45;9.75;;;;;;;;;;5025091;28;20428;-63
2023/01/14 05:25:29;;;;;;;9.15;8.55;;;;;;;;;;5024937;28;20033;-62
2023/01/14 05:28:03;;;;;;;11.38;10.30;;;;;;;;;;5025856;28;20410;-63
2023/01/14 05:30:29;;;;;;;9.35;8.75;;;;;;;;;;5024150;28;20041;-59
2023/01/14 05:32:54;;;;;;;11.10;10.30;;;;;;;;;;5026083;28;20568;-58
2023/01/14 05:35:20;;;;;;;10.07;9.38;;;;;;;;;;5024291;28;20096;-59
2023/01/14 05:37:45;;;;;;;11.35;10.23;;;;;;;;;;5025094;28;20045;-58
2023/01/14 05:40:11;;;;;;;11.23;10.52;;;;;;;;;;5023937;28;20037;-59
2023/01/14 05:45:40;;;;;;;9.98;9.38;;;;;;;;;;5024500;28;20025;-63
2023/01/14 05:48:10;;;;;;;10.23;9.63;;;;;;;;;;5024648;28;20503;-59
2023/01/14 05:50:36;;;;;;;11.90;10.77;;;;;;;;;;5022755;28;20068;-58
2023/01/14 05:53:03;;;;;;;10.13;9.43;;;;;;;;;;5024165;28;20072;-63
2023/01/14 05:55:28;;;;;;;8.82;8.23;;;;;;;;;;5024613;28;20045;-62
2023/01/14 05:57:57;;;;;;;10.35;9.75;;;;;;;;;;5024669;28;20029;-58
2023/01/14 06:08:37;;;;;;;9.68;9.07;;;;;;;;;;5024735;28;20044;-62
2023/01/14 06:11:02;;;;;;;9.35;8.75;;;;;;;;;;5024009;28;20472;-62
2023/01/14 06:13:28;;;;;;;9.65;9.05;;;;;;;;;;5024364;28;20203;-58
2023/01/14 06:15:55;;;;;;;9.32;8.50;;;;;;;;;;5026693;28;20116;-58
2023/01/14 06:18:22;;;;;;;10.10;9.50;;;;;;;;;;5028655;28;20040;-58
2023/01/14 06:20:52;;;;;;;9.68;9.07;;;;;;;;;;5028255;28;20136;-58
2023/01/14 06:23:19;;;;;;;9.85;9.25;;;;;;;;;;5026140;28;20029;-59
2023/01/14 06:25:47;;;;;;;11.18;10.27;;;;;;;;;;5029553;28;20041;-63
2023/01/14 06:28:13;;;;;;;10.00;9.30;;;;;;;;;;5028353;28;20033;-63
2023/01/14 06:30:39;;;;;;;9.90;9.30;;;;;;;;;;5029203;28;20064;-63
2023/01/14 06:33:06;;;;;;;9.48;8.88;;;;;;;;;;5028579;28;20566;-63
2023/01/14 06:35:31;;;;;;;9.23;8.63;;;;;;;;;;5028275;28;20442;-59
2023/01/14 06:37:57;;;;;;;9.38;8.77;;;;;;;;;;5029335;28;20044;-59
2023/01/14 06:40:22;;;;;;;9.88;9.27;;;;;;;;;;5027875;28;20045;-59
2023/01/14 06:42:52;;;;;;;10.48;9.60;;;;;;;;;;5027890;28;20651;-59
2023/01/14 06:45:18;;;;;;;9.73;9.13;;;;;;;;;;5028602;28;20041;-60
2023/01/14 06:47:43;;;;;;;9.68;9.07;;;;;;;;;;5027850;28;20041;-59
2023/01/14 06:50:09;;;;;;;10.05;9.25;;;;;;;;;;5027321;28;20026;-59
2023/01/14 06:52:34;;;;;;;11.00;10.07;;;;;;;;;;5028660;28;20091;-59
2023/01/14 06:55:00;;;;;;;10.00;9.00;;;;;;;;;;5027643;28;20029;-59
2023/01/14 06:57:25;;;;;;;12.75;11.90;;;;;;;;;;5027965;28;20038;-59
2023/01/14 06:59:51;;;;;;;9.52;8.82;;;;;;;;;;5028012;28;20044;-59
2023/01/14 07:02:16;;;;;;;10.07;9.48;;;;;;;;;;5025718;28;20416;-58
2023/01/14 07:04:43;;;;;;;11.85;9.45;;;;;;;;;;5027563;28;20037;-58
2023/01/14 07:07:09;;;;;;;11.45;10.40;;;;;;;;;;5025530;28;20475;-59
2023/01/14 07:09:34;;;;;;;10.60;10.00;;;;;;;;;;5025592;28;20033;-58
2023/01/14 07:11:59;;;;;;;10.13;9.32;;;;;;;;;;5026962;28;20087;-58
2023/01/14 07:14:25;;;;;;;10.07;9.48;;;;;;;;;;5026581;28;20083;-58
2023/01/14 07:16:50;;;;;;;10.20;9.60;;;;;;;;;;5028136;28;20041;-58
2023/01/14 07:19:15;;;;;;;10.45;9.60;;;;;;;;;;5027009;28;20065;-58
2023/01/14 07:21:41;;;;;;;10.32;9.55;;;;;;;;;;5027329;28;20379;-58
2023/01/14 07:24:07;;;;;;;10.35;9.50;;;;;;;;;;5026030;28;20390;-58
2023/01/14 07:26:32;;;;;;;10.27;9.38;;;;;;;;;;5027300;28;20045;-58
2023/01/14 07:28:57;;;;;;;9.00;8.40;;;;;;;;;;5026927;28;20040;-59
2023/01/14 07:31:23;;;;;;;9.88;9.13;;;;;;;;;;5025322;28;20460;-58
2023/01/14 07:33:48;;;;;;;10.15;9.55;;;;;;;;;;5026463;28;20042;-58
2023/01/14 07:36:14;;;;;;;8.95;8.35;;;;;;;;;;5026863;28;20037;-59
2023/01/14 07:38:39;;;;;;;15.23;9.35;;;;;;;;;;5026343;28;20068;-58
2023/01/14 07:41:13;;;;;;;9.38;8.77;;;;;;;;;;5040585;28;20114;-58
2023/01/14 07:43:38;;;;;;;9.13;8.52;;;;;;;;;;5027117;28;20048;-58
2023/01/14 07:46:06;;;;;;;9.55;8.95;;;;;;;;;;5026346;28;20253;-58
2023/01/14 07:48:32;;;;;;;9.73;9.02;;;;;;;;;;5027748;28;20723;-58
2023/01/14 07:50:58;;;;;;;10.75;10.05;;;;;;;;;;5026954;28;20132;-58
2023/01/14 07:53:23;;;;;;;10.60;9.65;;;;;;;;;;5027471;28;20124;-58
2023/01/14 07:55:49;;;;;;;9.75;9.05;;;;;;;;;;5026613;28;20044;-57
2023/01/14 07:58:14;;;;;;;10.82;10.13;;;;;;;;;;5024843;28;20133;-58
2023/01/14 08:00:40;;;;;;;10.20;9.50;;;;;;;;;;5024982;28;20372;-58
2023/01/14 08:03:05;;;;;;;10.18;9.57;;;;;;;;;;5024476;28;20102;-57
2023/01/14 08:05:33;;;;;;;9.70;9.02;;;;;;;;;;5025357;28;20034;-58
2023/01/14 08:07:59;;;;;;;12.05;11.05;;;;;;;;;;5024702;28;20037;-58
2023/01/14 08:10:24;;;;;;;10.63;10.00;;;;;;;;;;5023894;28;20045;-58
2023/01/14 08:12:50;;;;;;;11.30;10.18;;;;;;;;;;5026989;28;20033;-58
2023/01/14 08:15:15;;;;;;;10.20;9.60;;;;;;;;;;5024535;28;20073;-58
2023/01/14 08:17:40;;;;;;;10.73;10.10;;;;;;;;;;5027067;28;20029;-58
2023/01/14 08:20:07;;;;;;;10.57;9.68;;;;;;;;;;5025466;28;20034;-58
2023/01/14 08:22:32;;;;;;;9.50;8.90;;;;;;;;;;5025522;28;20045;-57
2023/01/14 08:24:58;;;;;;;10.13;9.52;;;;;;;;;;5024095;28;20029;-57
2023/01/14 08:27:23;;;;;;;11.07;10.18;;;;;;;;;;5024480;28;20743;-57
2023/01/14 08:29:49;;;;;;;11.48;10.70;;;;;;;;;;5023987;28;20025;-57
2023/01/14 08:32:14;;;;;;;11.32;10.52;;;;;;;;;;5024415;28;20041;-57
2023/01/14 08:34:40;;;;;;;11.02;10.23;;;;;;;;;;5025795;28;20075;-58
2023/01/14 08:37:05;;;;;;;9.98;9.38;;;;;;;;;;5024645;28;20060;-58
2023/01/14 08:39:31;;;;;;;10.45;9.85;;;;;;;;;;5022391;28;20108;-58
2023/01/14 08:41:57;;;;;;;10.25;9.65;;;;;;;;;;5025452;28;20120;-58
2023/01/14 08:44:23;;;;;;;10.82;10.18;;;;;;;;;;5023367;28;20117;-58
2023/01/14 08:46:48;;;;;;;11.45;10.73;;;;;;;;;;5024471;28;20060;-58
2023/01/14 08:49:13;;;;;;;9.70;9.10;;;;;;;;;;5024275;28;20025;-58
2023/01/14 08:51:39;;;;;;;10.40;9.70;;;;;;;;;;5026473;28;20120;-58
2023/01/14 08:54:05;;;;;;;10.60;9.82;;;;;;;;;;5025045;28;20045;-56
2023/01/14 08:56:30;;;;;;;11.48;10.73;;;;;;;;;;5025490;28;20056;-58
2023/01/14 08:58:56;;;;;;;11.95;10.93;;;;;;;;;;5025785;28;20033;-57
2023/01/14 09:01:21;;;;;;;11.35;10.45;;;;;;;;;;5024880;28;20527;-58
2023/01/14 09:03:46;;;;;;;10.38;9.48;;;;;;;;;;5025393;28;20055;-58
2023/01/14 09:06:15;;;;;;;10.70;10.00;;;;;;;;;;5025515;28;20043;-58
2023/01/14 09:17:08;;;;;;;10.75;10.05;;;;;;;;;;5024992;28;20037;-58
2023/01/14 09:19:45;;;;;;;10.18;9.57;;;;;;;;;;5023515;28;20037;-58
2023/01/14 09:22:13;;;;;;;11.45;10.55;;;;;;;;;;5024202;28;20037;-59
2023/01/14 09:24:38;;;;;;;10.02;9.43;;;;;;;;;;5025097;28;20463;-58
2023/01/14 09:27:04;;;;;;;10.10;9.48;;;;;;;;;;5023567;28;20052;-59
2023/01/14 09:29:29;;;;;;;10.18;9.55;;;;;;;;;;5024796;28;20029;-58
2023/01/14 09:31:54;;;;;;;11.50;10.50;;;;;;;;;;5024393;28;20053;-58
2023/01/14 09:34:20;;;;;;;11.63;10.35;;;;;;;;;;5023767;28;20124;-57
2023/01/14 09:36:45;;;;;;;10.50;9.80;;;;;;;;;;5025787;28;20033;-58
2023/01/14 09:39:11;;;;;;;11.18;10.48;;;;;;;;;;5025235;28;20866;-58
2023/01/14 09:41:45;;;;;;;12.27;11.38;;;;;;;;;;5023781;28;20410;-58
2023/01/14 09:44:11;;;;;;;10.50;9.90;;;;;;;;;;5022424;28;20095;-58
2023/01/14 09:46:37;;;;;;;11.23;10.52;;;;;;;;;;5025589;28;20037;-58
2023/01/14 09:49:04;;;;;;;12.15;11.35;;;;;;;;;;5025276;28;20040;-58
2023/01/14 09:52:12;;;;;;;11.70;10.90;;;;;;;;;;5039160;28;20379;-57
2023/01/14 09:54:49;;;;;;;12.57;11.88;;;;;;;;;;5015622;28;20072;-58
2023/01/14 09:57:21;;;;;;;9.80;9.20;;;;;;;;;;5024178;28;20103;-58
2023/01/14 10:00:00;;;;;;;10.50;9.90;;;;;;;;;;5025092;28;20099;-59
2023/01/14 10:02:53;;;;;;;10.65;9.98;;;;;;;;;;5033575;28;20203;-57
2023/01/14 10:05:28;;;;;;;9.93;9.32;;;;;;;;;;5024210;28;20033;-59
2023/01/14 10:07:55;;;;;;;11.13;10.43;;;;;;;;;;5024261;28;20045;-57
2023/01/14 10:10:29;;;;;;;11.48;10.77;;;;;;;;;;5022895;28;20553;-59
2023/01/14 10:12:58;;;;;;;9.80;9.20;;;;;;;;;;5025226;28;20128;-59
2023/01/14 10:15:39;;;;;;;11.35;10.60;;;;;;;;;;5021591;28;20110;-59
2023/01/14 10:18:23;;;;;;;10.85;10.15;;;;;;;;;;5024072;28;20037;-59
2023/01/14 10:20:53;;;;;;;10.32;9.68;;;;;;;;;;5023698;28;20069;-59
2023/01/14 10:23:23;;;;;;;11.25;10.23;;;;;;;;;;5023864;28;20034;-58
2023/01/14 10:25:51;;;;;;;10.63;9.93;;;;;;;;;;5023259;28;20052;-59
2023/01/14 10:28:22;;;;;;;11.18;10.48;;;;;;;;;;5023515;28;20047;-60
2023/01/14 10:30:49;;;;;;;11.30;10.43;;;;;;;;;;5024884;28;20048;-58
2023/01/14 10:33:16;;;;;;;11.30;10.60;;;;;;;;;;5024663;28;20084;-58
2023/01/14 10:35:45;;;;;;;12.02;11.32;;;;;;;;;;5025160;28;20037;-58
2023/01/14 10:38:20;;;;;;;11.75;11.05;;;;;;;;;;5023108;28;20041;-58
2023/01/14 10:40:47;;;;;;;11.75;11.05;;;;;;;;;;5022484;28;20061;-59
2023/01/14 10:43:29;;;;;;;13.27;12.48;;;;;;;;;;5023141;28;20116;-59
2023/01/14 10:45:55;;;;;;;13.38;12.23;;;;;;;;;;5025447;28;20071;-58
2023/01/14 10:48:21;;;;;;;12.27;11.50;;;;;;;;;;5024272;28;20535;-58
2023/01/14 10:50:47;;;;;;;11.93;11.18;;;;;;;;;;5022192;28;20621;-59
2023/01/14 10:53:20;;;;;;;12.60;11.82;;;;;;;;;;5023241;28;20148;-59
2023/01/14 10:55:48;;;;;;;12.20;11.40;;;;;;;;;;5024159;28;20681;-59
2023/01/14 10:58:17;;;;;;;12.50;11.80;;;;;;;;;;5022687;28;20057;-60
2023/01/14 11:00:47;;;;;;;12.77;11.98;;;;;;;;;;5023838;28;20069;-60
2023/01/14 11:03:28;;;;;;;12.68;11.88;;;;;;;;;;5025405;28;20048;-60
2023/01/14 11:05:57;;;;;;;11.80;11.07;;;;;;;;;;5025100;28;20037;-61
2023/01/14 11:08:29;;;;;;;12.60;11.80;;;;;;;;;;5025551;28;20033;-61
2023/01/14 11:10:57;;;;;;;12.57;11.80;;;;;;;;;;5026114;28;20063;-61
2023/01/14 11:13:25;;;;;;;13.07;12.20;;;;;;;;;;5025669;28;20079;-61
2023/01/14 11:15:50;;;;;;;15.10;12.32;;;;;;;;;;5027445;28;20037;-60
2023/01/14 11:18:18;;;;;;;12.93;12.13;;;;;;;;;;5027607;28;20550;-60
2023/01/14 11:21:07;;;;;;;12.60;11.90;;;;;;;;;;5027208;28;20045;-59
2023/01/14 11:23:39;;;;;;;11.98;11.27;;;;;;;;;;5025703;28;20124;-60
2023/01/14 11:26:21;;;;;;;13.10;12.30;;;;;;;;;;5027344;28;20068;-60
2023/01/14 11:28:48;;;;;;;12.82;11.98;;;;;;;;;;5027319;28;20029;-60
2023/01/14 11:31:14;;;;;;;13.02;12.13;;;;;;;;;;5027726;28;20143;-59
2023/01/14 11:33:49;;;;;;;12.20;11.50;;;;;;;;;;5026764;28;20052;-59
2023/01/14 11:36:23;;;;;;;11.20;10.48;;;;;;;;;;5009868;28;20172;-59
2023/01/14 11:38:49;;;;;;;11.82;11.13;;;;;;;;;;5025487;28;20182;-60
2023/01/14 11:41:47;;;;;;;12.40;11.57;;;;;;;;;;5025769;28;20045;-59
2023/01/14 11:44:18;;;;;;;11.70;10.98;;;;;;;;;;5027655;28;20045;-60
2023/01/14 11:46:45;;;;;;;11.48;10.77;;;;;;;;;;5023462;28;20037;-59
2023/01/14 11:49:19;;;;;;;11.60;10.90;;;;;;;;;;5024649;28;20096;-59
2023/01/14 11:51:59;;;;;;;12.20;11.50;;;;;;;;;;5025716;28;20068;-59
2023/01/14 11:54:34;;;;;;;12.82;12.10;;;;;;;;;;5024354;28;20059;-59
2023/01/14 11:57:00;;;;;;;14.40;13.27;;;;;;;;;;5026094;28;20033;-59
2023/01/14 11:59:29;;;;;;;11.10;10.40;;;;;;;;;;5025909;28;20037;-59
2023/01/14 12:02:22;;;;;;;11.75;11.05;;;;;;;;;;5025082;28;20476;-59
2023/01/14 12:05:05;;;;;;;13.05;12.25;;;;;;;;;;5023435;28;20053;-60
2023/01/14 12:07:43;;;;;;;11.63;10.88;;;;;;;;;;5025663;28;20037;-59
2023/01/14 12:10:18;;;;;;;11.38;10.68;;;;;;;;;;5014026;28;20478;-60
2023/01/14 12:18:27;;;;;;;11.18;10.48;;;;;;;;;;5023294;28;20148;-60
2023/01/14 12:20:53;;;;;;;11.13;10.43;;;;;;;;;;5024338;28;20033;-60
2023/01/14 12:23:22;;;;;;;11.88;11.18;;;;;;;;;;5023322;28;20480;-60
2023/01/14 12:25:50;;;;;;;11.93;11.20;;;;;;;;;;5016664;28;20064;-60
2023/01/14 12:28:38;;;;;;;12.02;11.05;;;;;;;;;;5024690;28;20424;-59
2023/01/14 12:31:20;;;;;;;11.90;11.10;;;;;;;;;;5023074;28;20108;-59
2023/01/14 12:34:02;;;;;;;11.50;10.73;;;;;;;;;;5023507;28;20030;-59
2023/01/14 12:36:38;;;;;;;11.75;10.95;;;;;;;;;;5023586;28;20107;-59
2023/01/14 12:47:41;;;;;;;11.27;10.57;;;;;;;;;;5024623;28;20455;-59
2023/01/14 12:50:09;;;;;;;11.82;11.13;;;;;;;;;;5022175;28;20034;-59
2023/01/14 12:52:38;;;;;;;11.77;11.07;;;;;;;;;;5024872;28;20045;-59
2023/01/14 12:55:06;;;;;;;11.63;10.93;;;;;;;;;;5025839;28;20053;-59
2023/01/14 12:57:37;;;;;;;11.98;11.27;;;;;;;;;;5024168;28;20764;-60
2023/01/14 13:00:08;;;;;;;12.55;11.75;;;;;;;;;;5024571;28;20060;-60
2023/01/14 13:02:35;;;;;;;;;;;;;;;;;;5025206;28;20048;-60
2023/01/14 13:05:14;;;;;;;11.63;10.93;;;;;;;;;;5026277;28;19921;-59
2023/01/14 13:07:48;;;;;;;11.25;10.55;;;;;;;;;;5024059;28;20048;-60
2023/01/14 13:10:28;;;;;;;12.60;11.90;;;;;;;;;;5024191;28;20110;-59
2023/01/14 13:12:54;;;;;;;13.48;12.68;;;;;;;;;;5024306;28;20037;-61
2023/01/14 13:15:19;;;;;;;11.73;11.02;;;;;;;;;;5025331;28;20117;-60
2023/01/14 13:17:56;;;;;;;13.10;12.15;;;;;;;;;;5025667;28;20041;-61
2023/01/14 13:20:39;;;;;;;12.73;11.90;;;;;;;;;;5022822;28;20057;-61
2023/01/14 13:23:08;;;;;;;11.40;10.70;;;;;;;;;;5025205;28;20041;-60
2023/01/14 13:25:38;;;;;;;11.98;11.27;;;;;;;;;;5016353;28;20136;-60
2023/01/14 13:28:10;;;;;;;13.95;12.88;;;;;;;;;;5025394;28;20099;-60
2023/01/14 13:30:48;;;;;;;11.80;11.10;;;;;;;;;;5023493;28;20422;-60
2023/01/14 13:33:27;;;;;;;12.02;11.32;;;;;;;;;;5024577;28;20025;-59
2023/01/14 13:36:09;;;;;;;11.88;11.18;;;;;;;;;;5026785;28;20056;-60
2023/01/14 13:38:39;;;;;;;;;;;;;;;;;;5025723;28;20053;-60
2023/01/14 13:41:09;;;;;;;12.52;11.63;;;;;;;;;;5028585;28;19927;-60
2023/01/14 13:43:52;;;;;;;11.25;10.55;;;;;;;;;;5022843;28;20084;-60
2023/01/14 13:46:23;;;;;;;13.07;11.95;;;;;;;;;;5023283;28;20041;-61
2023/01/14 13:49:01;;;;;;;11.82;11.13;;;;;;;;;;5023407;28;20107;-60
2023/01/14 13:51:49;;;;;;;13.52;12.63;;;;;;;;;;5029778;28;20044;-61
2023/01/14 13:54:23;;;;;;;12.98;12.20;;;;;;;;;;5019785;28;20265;-61
2023/01/14 13:57:12;;;;;;;12.40;11.70;;;;;;;;;;5023550;28;20040;-61
2023/01/14 13:59:40;;;;;;;11.45;10.75;;;;;;;;;;5013890;28;20071;-61
2023/01/14 14:02:38;;;;;;;11.73;11.02;;;;;;;;;;5022753;28;20033;-60
2023/01/14 14:05:16;;;;;;;12.82;12.02;;;;;;;;;;5020660;28;20049;-61
2023/01/14 14:07:41;;;;;;;11.85;11.15;;;;;;;;;;5024466;28;20037;-61
2023/01/14 14:10:10;;;;;;;13.18;12.35;;;;;;;;;;5024977;28;20033;-61
2023/01/14 14:15:24;;;;;;;13.57;12.68;;;;;;;;;;5024334;28;20116;-60
2023/01/14 14:17:55;;;;;;;12.68;11.98;;;;;;;;;;5025289;28;20048;-60
2023/01/14 14:20:24;;;;;;;12.75;12.05;;;;;;;;;;5023888;28;20036;-60
2023/01/14 14:23:03;;;;;;;12.32;11.52;;;;;;;;;;5024230;28;20038;-60
2023/01/14 14:25:43;;;;;;;12.50;11.80;;;;;;;;;;5023899;28;20611;-60
2023/01/14 14:28:16;;;;;;;12.32;11.63;;;;;;;;;;5023534;28;20124;-61
2023/01/14 14:30:59;;;;;;;12.38;11.68;;;;;;;;;;5034852;28;20140;-61
2023/01/14 14:33:38;;;;;;;13.80;12.85;;;;;;;;;;5024904;28;20051;-61
2023/01/14 14:36:24;;;;;;;12.05;11.35;;;;;;;;;;5025608;28;20048;-61
2023/01/14 14:38:53;;;;;;;12.85;12.07;;;;;;;;;;5028044;28;20096;-61
2023/01/14 14:41:22;;;;;;;11.90;11.20;;;;;;;;;;5026626;28;20065;-61
2023/01/14 14:43:57;;;;;;;11.98;11.27;;;;;;;;;;5029092;28;20033;-61
2023/01/14 14:46:25;;;;;;;12.60;11.90;;;;;;;;;;5027631;28;20072;-60
2023/01/14 14:48:50;;;;;;;12.45;11.75;;;;;;;;;;5028158;28;20041;-61
2023/01/14 14:51:27;;;;;;;12.70;11.98;;;;;;;;;;5027741;28;20076;-61
2023/01/14 14:53:54;;;;;;;12.40;11.63;;;;;;;;;;5028833;28;20136;-61
2023/01/14 14:56:21;;;;;;;13.38;12.57;;;;;;;;;;5027804;28;20394;-61
2023/01/14 14:58:55;;;;;;;13.77;12.98;;;;;;;;;;5042839;28;20042;-60
2023/01/14 15:01:29;;;;;;;14.02;13.20;;;;;;;;;;5027556;28;20025;-60
2023/01/14 15:03:55;;;;;;;12.60;11.80;;;;;;;;;;5029044;28;20475;-60
2023/01/14 15:06:21;;;;;;;12.95;12.18;;;;;;;;;;5025602;28;20091;-60
2023/01/14 15:08:59;;;;;;;12.70;12.00;;;;;;;;;;5028305;28;20501;-61
2023/01/14 15:11:37;;;;;;;11.77;11.07;;;;;;;;;;5027107;28;20685;-61
2023/01/14 15:14:02;;;;;;;12.45;11.75;;;;;;;;;;5028526;28;20506;-61
2023/01/14 15:16:34;;;;;;;12.88;12.13;;;;;;;;;;5026734;28;20124;-61
2023/01/14 15:19:01;;;;;;;13.98;12.90;;;;;;;;;;5027399;28;20123;-60
2023/01/14 15:21:37;;;;;;;12.30;11.60;;;;;;;;;;5027405;28;20057;-61
2023/01/14 15:24:10;;;;;;;12.85;12.07;;;;;;;;;;5028032;28;20494;-61
2023/01/14 15:26:37;;;;;;;12.02;11.32;;;;;;;;;;5026804;28;20451;-60
2023/01/14 15:29:03;;;;;;;12.40;11.70;;;;;;;;;;5027136;28;20022;-60
2023/01/14 15:31:32;;;;;;;12.07;11.38;;;;;;;;;;5027403;28;20371;-60
2023/01/14 15:34:02;;;;;;;12.52;11.73;;;;;;;;;;5027475;28;20033;-60